Dampier, Australia
Current Conditions -  °F | °C
As of 10:30 AM on Sunday 26 Oct 2014 (Local Time) from YPPD Reporting Station
Clear Clear  
Wind Chill: 106°   Ceiling: Unl
Heat Index: 106°   Visibility: 6mi
Dew Point: 28°   Wind: 13mph
Humidity: 7%   Direction: 150°SSE
Pressure: 29.88"   Gusts: NA
Location:  20.66°S, 116.71°E
Report Text: YPPD 260230Z 15011KT CAVOK 41/M02 Q1012
Loading
Personal Weather Stations






























Interactive Weather Map
Tropical Storm Tracking
New forecast layout! Learn more

10-Day Weather Forecast

Advertisements
Track Severe Weather on mobile